Time;durP1;ratioP1;P1;durP2;ratioP2;P2;SDS_P1;SDS_P2;PMS_P1;PMS_P2;Temp;Humidity;BMP_temperature;BMP_pressure;BME280_temperature;BME280_humidity;BME280_pressure;Samples;Min_cycle;Max_cycle;Signal;HPM_P1;HPM_P2
2021/07/03 00:01:13;;;;;;;9.48;4.75;;;;;;;19.46;80.77;99244.33;1720133;83;22664;-77
2021/07/03 00:03:39;;;;;;;12.37;5.72;;;;;;;19.48;80.80;99246.28;1721309;82;20976;-77
2021/07/03 00:06:06;;;;;;;10.30;5.08;;;;;;;19.46;80.88;99251.03;1720128;83;20937;-77
2021/07/03 00:08:32;;;;;;;8.98;4.70;;;;;;;19.44;80.92;99247.22;1720337;82;21005;-77
2021/07/03 00:11:00;;;;;;;8.53;5.20;;;;;;;19.43;80.96;99247.43;1720140;83;21020;-77
2021/07/03 00:13:26;;;;;;;6.75;4.60;;;;;;;19.41;81.00;99252.17;1720270;83;22496;-77
2021/07/03 00:15:53;;;;;;;6.67;4.28;;;;;;;19.40;81.04;99257.23;1721756;82;20949;-77
2021/07/03 00:18:21;;;;;;;9.23;4.50;;;;;;;19.40;81.09;99256.71;1720723;82;21073;-77
2021/07/03 00:20:48;;;;;;;8.28;4.45;;;;;;;19.40;81.14;99258.56;1744685;82;21059;-77
2021/07/03 00:23:14;;;;;;;8.05;4.00;;;;;;;19.40;81.12;99256.71;1693368;83;20949;-77
2021/07/03 00:25:41;;;;;;;8.60;3.90;;;;;;;19.41;81.07;99256.19;1720030;83;22230;-77
2021/07/03 00:28:08;;;;;;;11.80;4.22;;;;;;;19.42;81.05;99257.32;1693511;83;21471;-77
2021/07/03 00:30:34;;;;;;;7.72;3.85;;;;;;;19.41;81.03;99255.67;1720041;83;20956;-77
2021/07/03 00:33:01;;;;;;;6.60;3.65;;;;;;;19.40;80.96;99252.69;1719431;83;21285;-77
2021/07/03 00:35:27;;;;;;;7.22;4.22;;;;;;;19.41;80.95;99256.19;1706621;83;20946;-77
2021/07/03 00:37:53;;;;;;;7.83;3.80;;;;;;;19.39;80.86;99255.55;1707759;82;21798;-77
2021/07/03 00:40:20;;;;;;;6.08;3.80;;;;;;;19.37;80.80;99251.75;1706459;82;21452;-77
2021/07/03 00:42:49;;;;;;;8.45;4.05;;;;;;;19.37;80.74;99251.75;1706597;84;21065;-77
2021/07/03 00:45:15;;;;;;;7.00;3.95;;;;;;;19.36;80.67;99252.78;1706638;84;20954;-77
2021/07/03 00:47:42;;;;;;;10.88;4.70;;;;;;;19.33;80.59;99252.38;1706701;84;21372;-77
2021/07/03 00:50:10;;;;;;;9.13;4.45;;;;;;;19.27;80.49;99257.20;1706646;84;21835;-77
2021/07/03 00:52:39;;;;;;;9.95;4.62;;;;;;;19.24;80.41;99252.27;1706567;84;21052;-77
2021/07/03 00:55:09;;;;;;;12.95;4.90;;;;;;;19.20;80.41;99253.17;1707558;82;21005;-77
2021/07/03 00:57:39;;;;;;;7.83;4.75;;;;;;;19.18;80.39;99249.06;1706888;84;20973;-77
2021/07/03 01:00:09;;;;;;;11.63;5.08;;;;;;;19.15;80.36;99252.98;1686876;84;21421;-77
2021/07/03 01:02:36;;;;;;;11.43;5.58;;;;;;;19.13;80.32;99251.03;1706919;84;21804;-77
2021/07/03 01:05:05;;;;;;;11.22;6.12;;;;;;;19.10;80.25;99250.08;1706644;84;20958;-77
2021/07/03 01:07:33;;;;;;;11.48;5.85;;;;;;;19.05;80.16;99244.52;1706825;84;21045;-77
2021/07/03 01:10:00;;;;;;;16.90;6.00;;;;;;;18.99;80.04;99243.99;1686611;84;21017;-77
2021/07/03 01:12:27;;;;;;;18.02;5.97;;;;;;;18.93;79.97;99246.16;1707830;82;21416;-77
2021/07/03 01:14:53;;;;;;;19.30;6.53;;;;;;;18.85;79.91;99248.51;1706713;82;22276;-77
2021/07/03 01:17:21;;;;;;;15.95;6.25;;;;;;;18.78;79.95;99239.63;1706325;82;21053;-77
2021/07/03 01:19:51;;;;;;;15.83;6.90;;;;;;;18.72;79.97;99237.27;1706658;83;21017;-77
2021/07/03 01:22:19;;;;;;;18.52;6.83;;;;;;;18.68;79.97;99233.33;1706593;82;21092;-77
2021/07/03 01:24:47;;;;;;;14.40;6.35;;;;;;;18.65;80.01;99231.59;1707231;84;20949;-77
2021/07/03 01:27:14;;;;;;;15.18;5.85;;;;;;;18.63;79.99;99235.77;1706678;83;21841;-77
2021/07/03 01:29:42;;;;;;;10.05;5.08;;;;;;;18.59;79.97;99240.68;1702827;82;21516;-77
2021/07/03 01:32:08;;;;;;;11.05;5.60;;;;;;;18.58;79.95;99242.22;1735990;82;21085;-77
2021/07/03 01:34:37;;;;;;;10.25;5.05;;;;;;;18.54;79.87;99246.34;1735886;81;20986;-77
2021/07/03 01:37:04;;;;;;;13.78;5.78;;;;;;;18.49;79.85;99248.77;1736091;82;20937;-77
2021/07/03 01:39:32;;;;;;;7.97;5.10;;;;;;;18.46;79.91;99244.66;1735995;82;21856;-77
2021/07/03 01:42:00;;;;;;;10.20;5.15;;;;;;;18.42;79.90;99243.39;1735963;81;21029;-77
2021/07/03 01:44:29;;;;;;;9.98;5.35;;;;;;;18.40;79.96;99241.44;1735978;82;20990;-77
2021/07/03 01:46:58;;;;;;;11.43;5.50;;;;;;;18.40;80.03;99241.95;1714086;82;21022;-77
2021/07/03 01:49:27;;;;;;;10.98;5.10;;;;;;;18.39;80.03;99242.46;1735994;81;21081;-77
2021/07/03 01:51:54;;;;;;;8.63;4.62;;;;;;;18.38;80.06;99246.67;1735971;82;22709;-77
2021/07/03 01:54:21;;;;;;;14.07;5.12;;;;;;;18.36;80.13;99250.06;1714981;82;21004;-77
2021/07/03 01:56:58;;;;;;;8.00;4.70;;;;;;;18.33;80.17;99245.09;1735915;81;20985;-77
2021/07/03 01:59:28;;;;;;;13.38;5.10;;;;;;;18.31;80.18;99251.98;1735611;82;21405;-78
2021/07/03 02:01:57;;;;;;;10.00;5.35;;;;;;;18.26;80.16;99243.24;1735939;82;21131;-77
2021/07/03 02:04:25;;;;;;;9.28;4.90;;;;;;;18.26;80.16;99243.24;1711088;82;21501;-77
2021/07/03 02:06:52;;;;;;;10.50;4.87;;;;;;;18.26;80.23;99243.75;1706680;83;20997;-77
2021/07/03 02:09:22;;;;;;;9.63;4.65;;;;;;;18.26;80.25;99247.77;1706583;84;21048;-78
2021/07/03 02:11:51;;;;;;;11.68;4.92;;;;;;;18.25;80.26;99250.12;1706548;84;21049;-78
2021/07/03 02:14:19;;;;;;;9.85;4.33;;;;;;;18.22;80.31;99245.98;1706392;84;21000;-78
2021/07/03 02:16:50;;;;;;;12.20;4.90;;;;;;;18.21;80.36;99240.84;1682580;82;21771;-78
2021/07/03 02:19:19;;;;;;;10.20;5.22;;;;;;;18.16;80.45;99244.13;1706570;84;21445;-78
2021/07/03 02:21:46;;;;;;;10.23;4.87;;;;;;;18.11;80.57;99250.55;1735989;82;20998;-77
2021/07/03 02:24:14;;;;;;;10.38;4.70;;;;;;;18.09;80.64;99248.59;1735513;81;21390;-77
2021/07/03 02:26:41;;;;;;;8.95;4.70;;;;;;;18.09;80.64;99244.59;1715286;82;21009;-77
2021/07/03 02:29:09;;;;;;;11.88;5.10;;;;;;;18.09;80.64;99246.44;1735948;82;22212;-77
2021/07/03 02:31:35;;;;;;;9.68;5.35;;;;;;;18.08;80.70;99244.79;1736161;82;21382;-77
2021/07/03 02:34:04;;;;;;;13.00;4.85;;;;;;;18.06;80.73;99242.84;1735836;81;21110;-77
2021/07/03 02:36:32;;;;;;;8.60;4.55;;;;;;;18.03;80.83;99250.71;1734985;82;20981;-77
2021/07/03 02:38:59;;;;;;;10.53;4.62;;;;;;;18.00;80.94;99257.80;1715041;82;21085;-77
2021/07/03 02:41:27;;;;;;;8.68;4.87;;;;;;;17.98;81.01;99255.33;1735098;82;22224;-77
2021/07/03 02:43:58;;;;;;;10.78;4.42;;;;;;;17.96;81.04;99256.04;1735832;82;21414;-77
2021/07/03 02:46:24;;;;;;;8.53;4.40;;;;;;;17.95;81.15;99254.87;1715088;82;20980;-77
2021/07/03 02:48:51;;;;;;;9.65;4.78;;;;;;;17.96;81.20;99249.36;1714929;82;21460;-77
2021/07/03 02:51:17;;;;;;;7.53;4.55;;;;;;;17.97;81.27;99249.67;1736240;82;20950;-77
2021/07/03 02:53:44;;;;;;;9.23;4.75;;;;;;;18.01;81.31;99256.77;1734824;81;22203;-77
2021/07/03 02:56:12;;;;;;;9.25;5.00;;;;;;;18.02;81.34;99259.23;1735853;82;21556;-77
2021/07/03 02:58:40;;;;;;;6.47;4.50;;;;;;;18.05;81.36;99262.53;1736000;82;21025;-77
2021/07/03 03:01:07;;;;;;;11.70;4.85;;;;;;;18.07;81.41;99261.34;1736225;82;20945;-78
2021/07/03 03:03:36;;;;;;;8.43;4.58;;;;;;;18.09;81.45;99265.97;1735966;82;20973;-78
2021/07/03 03:06:02;;;;;;;12.30;4.83;;;;;;;18.12;81.53;99269.58;1715121;82;21842;-78
2021/07/03 03:08:29;;;;;;;7.75;4.85;;;;;;;18.17;81.54;99273.83;1735810;82;21013;-78
2021/07/03 03:10:55;;;;;;;10.95;4.83;;;;;;;18.19;81.58;99263.76;1735192;82;20958;-78
2021/07/03 03:13:23;;;;;;;7.50;4.83;;;;;;;18.24;81.62;99271.20;1735971;82;20953;-79
2021/07/03 03:15:51;;;;;;;7.67;4.65;;;;;;;18.28;81.67;99265.24;1729855;82;21030;-76
2021/07/03 03:18:17;;;;;;;7.03;5.12;;;;;;;18.33;81.68;99266.48;1718162;82;22847;-79
2021/07/03 03:20:44;;;;;;;7.12;4.85;;;;;;;18.37;81.69;99266.42;1686554;84;21008;-78
2021/07/03 03:23:11;;;;;;;7.85;4.90;;;;;;;18.41;81.69;99264.98;1706603;83;21057;-78
2021/07/03 03:25:39;;;;;;;13.10;5.05;;;;;;;18.46;81.67;99265.22;1686236;84;21459;-78
2021/07/03 03:28:06;;;;;;;9.85;5.10;;;;;;;18.52;81.69;99267.08;1715429;82;20997;-78
2021/07/03 03:30:33;;;;;;;9.28;5.15;;;;;;;18.54;81.59;99269.89;1736166;82;22182;-78
2021/07/03 03:32:59;;;;;;;8.48;5.00;;;;;;;18.58;81.47;99271.64;1735905;82;20981;-78
2021/07/03 03:35:26;;;;;;;6.83;4.80;;;;;;;18.62;81.30;99266.19;1735793;81;20934;-76
2021/07/03 03:37:55;;;;;;;8.10;5.10;;;;;;;18.68;81.15;99273.97;1717425;82;21020;-77
2021/07/03 03:40:26;;;;;;;10.03;5.45;;;;;;;18.75;80.92;99267.63;1705151;84;21036;-78
2021/07/03 03:42:55;;;;;;;10.05;5.20;;;;;;;18.79;80.52;99272.05;1705982;84;22510;-78
2021/07/03 03:45:24;;;;;;;9.15;5.80;;;;;;;18.82;80.31;99275.16;1707001;82;21511;-79
2021/07/03 03:47:52;;;;;;;11.57;6.62;;;;;;;18.87;80.11;99275.36;1706300;84;20993;-79
2021/07/03 03:50:19;;;;;;;17.60;9.90;;;;;;;18.94;79.95;99270.55;1706954;84;21478;-79
2021/07/03 03:52:46;;;;;;;19.35;15.18;;;;;;;18.98;79.56;99271.78;1706479;82;20950;-79
2021/07/03 03:55:12;;;;;;;24.10;19.25;;;;;;;19.02;79.39;99273.87;1706458;84;22318;-78
2021/07/03 03:57:39;;;;;;;31.93;22.27;;;;;;;19.07;79.22;99272.73;1706566;84;21005;-78
2021/07/03 04:00:09;;;;;;;33.20;23.00;;;;;;;19.12;78.87;99272.95;1706359;84;20949;-79
2021/07/03 04:02:42;;;;;;;33.05;19.67;;;;;;;19.19;78.73;99272.94;1707664;82;21064;-78
2021/07/03 04:05:09;;;;;;;28.60;20.32;;;;;;;19.24;78.49;99271.83;1706534;82;21030;-78
2021/07/03 04:07:38;;;;;;;31.35;19.52;;;;;;;19.29;78.40;99263.17;1706575;82;22266;-78
2021/07/03 04:10:08;;;;;;;32.42;19.10;;;;;;;19.34;78.39;99258.86;1706430;82;20945;-78
2021/07/03 04:12:36;;;;;;;36.38;17.95;;;;;;;19.40;78.30;99258.56;1706775;84;20938;-78
2021/07/03 04:15:04;;;;;;;39.88;18.48;;;;;;;19.44;78.06;99255.26;1706462;82;20997;-78
2021/07/03 04:17:33;;;;;;;47.05;18.98;;;;;;;19.50;77.88;99255.47;1706687;84;21002;-78
2021/07/03 04:19:59;;;;;;;57.73;19.65;;;;;;;19.54;77.70;99254.84;1707396;82;22683;-78
2021/07/03 04:22:27;;;;;;;59.80;20.80;;;;;;;19.58;77.53;99253.41;1706608;84;20949;-78
2021/07/03 04:24:53;;;;;;;64.27;20.10;;;;;;;19.65;77.53;99251.56;1706887;84;20957;-78
2021/07/03 04:27:20;;;;;;;67.85;20.82;;;;;;;19.72;77.47;99244.34;1706644;84;21005;-78
2021/07/03 04:29:47;;;;;;;59.45;19.65;;;;;;;19.79;77.34;99247.03;1706627;84;21520;-78
2021/07/03 04:32:13;;;;;;;58.52;18.75;;;;;;;19.86;77.25;99249.16;1706805;84;22813;-78
2021/07/03 04:34:42;;;;;;;53.52;18.87;;;;;;;19.92;77.10;99249.67;1690778;83;21079;-78
2021/07/03 04:37:09;;;;;;;53.23;18.92;;;;;;;19.96;76.93;99246.86;1728688;81;21070;-78
2021/07/03 04:39:35;;;;;;;46.68;17.55;;;;;;;20.00;76.60;99250.79;1727948;81;21375;-78
2021/07/03 04:42:02;;;;;;;49.13;18.12;;;;;;;20.07;76.60;99241.89;1727690;82;21038;-78
2021/07/03 04:44:29;;;;;;;49.42;18.32;;;;;;;20.11;76.47;99238.59;1727872;83;21506;-78
2021/07/03 04:46:56;;;;;;;50.00;17.67;;;;;;;20.13;75.94;99241.06;1727654;83;20996;-78
2021/07/03 04:49:22;;;;;;;43.05;16.32;;;;;;;20.17;75.73;99236.91;1727959;83;21011;-78
2021/07/03 04:51:52;;;;;;;40.52;15.78;;;;;;;20.21;75.54;99235.47;1727590;83;20988;-78
2021/07/03 04:54:19;;;;;;;38.98;15.75;;;;;;;20.25;75.24;99233.47;1728936;81;21546;-78
2021/07/03 04:56:45;;;;;;;42.17;15.50;;;;;;;20.30;75.10;99235.02;1727614;83;22669;-78
2021/07/03 04:59:12;;;;;;;41.65;15.85;;;;;;;20.35;74.87;99231.69;1700658;83;20952;-78
2021/07/03 05:01:40;;;;;;;34.48;14.55;;;;;;;20.39;74.76;99231.58;1727757;82;21512;-78
2021/07/03 05:04:07;;;;;;;33.78;15.40;;;;;;;20.46;74.66;99227.05;1727755;83;20972;-78
2021/07/03 05:06:33;;;;;;;31.60;14.28;;;;;;;20.51;74.36;99231.23;1728012;83;20961;-78
2021/07/03 05:08:59;;;;;;;40.12;15.63;;;;;;;20.57;74.26;99225.55;1727771;83;22141;-78
2021/07/03 05:11:27;;;;;;;40.90;15.28;;;;;;;20.63;74.12;99227.36;1728526;81;21102;-78
2021/07/03 05:13:54;;;;;;;36.05;15.35;;;;;;;20.68;73.98;99224.05;1727725;83;20949;-78
2021/07/03 05:16:20;;;;;;;34.50;15.38;;;;;;;20.74;74.08;99231.21;1728034;81;21007;-78
2021/07/03 05:18:47;;;;;;;34.65;14.60;;;;;;;20.83;74.29;99226.72;1727679;82;20969;-78
2021/07/03 05:21:13;;;;;;;32.50;14.33;;;;;;;20.93;74.00;99234.30;1727913;82;21796;-78
2021/07/03 05:23:40;;;;;;;33.60;14.25;;;;;;;20.98;73.95;99226.95;1727621;82;21055;-78
2021/07/03 05:26:06;;;;;;;31.57;14.20;;;;;;;21.04;73.79;99226.09;1727874;82;21000;-78
2021/07/03 05:28:33;;;;;;;31.02;14.70;;;;;;;21.10;73.81;99225.20;1728384;81;20976;-79
2021/07/03 05:31:00;;;;;;;34.92;15.65;;;;;;;21.18;73.50;99231.66;1728094;83;21503;-78
2021/07/03 05:33:26;;;;;;;43.05;16.52;;;;;;;21.24;73.32;99224.08;1727713;83;22832;-78
2021/07/03 05:35:53;;;;;;;37.48;16.70;;;;;;;21.32;73.24;99221.64;1715552;83;21382;-79
2021/07/03 05:38:20;;;;;;;36.48;15.93;;;;;;;21.39;73.05;99227.27;1706556;84;21563;-79
2021/07/03 05:40:46;;;;;;;31.60;15.40;;;;;;;21.43;72.72;99224.98;1706688;83;21369;-79
2021/07/03 05:43:13;;;;;;;30.88;14.47;;;;;;;21.51;72.72;99219.83;1706633;82;21520;-78
2021/07/03 05:45:40;;;;;;;30.55;14.73;;;;;;;21.60;72.68;99219.33;1707589;82;22731;-78
2021/07/03 05:48:06;;;;;;;25.52;14.35;;;;;;;21.68;72.55;99220.39;1706558;84;21381;-78
2021/07/03 05:50:33;;;;;;;23.00;13.10;;;;;;;21.77;72.19;99221.45;1709700;82;21053;-80
2021/07/03 05:52:59;;;;;;;22.85;12.68;;;;;;;21.82;71.87;99222.44;1714202;82;21032;-79
2021/07/03 05:55:26;;;;;;;25.20;13.30;;;;;;;21.86;71.47;99218.77;1707275;82;21421;-79
2021/07/03 05:57:52;;;;;;;20.40;12.20;;;;;;;21.91;71.17;99218.95;1706652;84;21793;-76
2021/07/03 06:00:20;;;;;;;26.12;12.65;;;;;;;21.99;71.22;99225.34;1706549;82;21548;-76
2021/07/03 06:02:46;;;;;;;26.77;13.32;;;;;;;22.06;70.76;99220.72;1714404;82;21013;-76
2021/07/03 06:05:12;;;;;;;25.70;13.25;;;;;;;22.16;70.52;99228.30;1713878;81;20998;-76
2021/07/03 06:07:40;;;;;;;25.75;12.88;;;;;;;22.21;70.06;99225.24;1706563;84;21016;-75
2021/07/03 06:10:08;;;;;;;22.05;12.63;;;;;;;22.29;70.04;99222.75;1707171;82;22479;-77
2021/07/03 06:12:35;;;;;;;22.95;13.60;;;;;;;22.36;69.81;99218.64;1707020;82;21341;-76
2021/07/03 06:15:03;;;;;;;25.02;13.20;;;;;;;22.44;69.39;99225.06;1715577;82;20977;-76
2021/07/03 06:17:30;;;;;;;19.98;11.88;;;;;;;22.46;69.30;99225.65;1731099;81;21037;-77
2021/07/03 06:19:57;;;;;;;28.17;13.30;;;;;;;22.53;69.25;99227.20;1718520;82;21444;-76
2021/07/03 06:22:23;;;;;;;21.50;12.45;;;;;;;22.64;69.26;99229.66;1706764;82;22763;-78
2021/07/03 06:24:50;;;;;;;19.67;12.00;;;;;;;22.72;68.87;99225.30;1706978;82;20995;-78
2021/07/03 06:27:16;;;;;;;22.13;12.73;;;;;;;22.80;68.31;99230.37;1706574;84;20957;-78
2021/07/03 06:29:43;;;;;;;16.60;11.10;;;;;;;22.83;68.04;99227.20;1716516;82;20989;-77
2021/07/03 06:32:09;;;;;;;18.95;10.35;;;;;;;22.87;67.97;99231.63;1685950;84;21056;-75
2021/07/03 06:34:36;;;;;;;21.37;11.05;;;;;;;22.93;68.49;99233.94;1726646;82;22191;-76
2021/07/03 06:37:03;;;;;;;16.95;9.23;;;;;;;22.97;68.03;99235.96;1744234;82;20945;-77
2021/07/03 06:39:30;;;;;;;18.40;9.95;;;;;;;23.00;68.31;99233.33;1749388;80;21462;-77
2021/07/03 06:41:56;;;;;;;15.95;8.98;;;;;;;23.05;68.26;99233.44;1721939;82;21376;-78
2021/07/03 06:44:23;;;;;;;16.73;9.28;;;;;;;23.16;68.45;99243.41;1718941;83;21071;-75
2021/07/03 06:46:49;;;;;;;16.75;8.95;;;;;;;23.29;68.52;99237.02;1719483;83;21830;-75
2021/07/03 06:49:17;;;;;;;13.62;8.83;;;;;;;23.41;67.61;99239.20;1719655;82;21088;-77
2021/07/03 06:51:44;;;;;;;13.08;8.35;;;;;;;23.48;67.47;99233.70;1724351;82;20993;-76
2021/07/03 06:54:11;;;;;;;13.48;8.25;;;;;;;23.58;66.89;99242.03;1749897;82;21040;-76
2021/07/03 06:56:37;;;;;;;10.98;7.60;;;;;;;23.65;66.96;99242.77;1750301;82;20944;-76
2021/07/03 06:59:04;;;;;;;14.75;7.75;;;;;;;23.75;66.94;99241.66;1722500;82;21871;-76
2021/07/03 07:01:30;;;;;;;11.95;7.17;;;;;;;23.84;66.47;99236.73;1750174;82;21019;-75
2021/07/03 07:03:57;;;;;;;9.90;6.30;;;;;;;23.89;65.95;99236.30;1749909;82;21044;-76
2021/07/03 07:06:23;;;;;;;9.95;6.37;;;;;;;23.90;65.34;99239.28;1750198;82;20996;-77
2021/07/03 07:08:49;;;;;;;12.00;5.22;;;;;;;23.89;65.45;99234.13;1748860;82;21039;-77
2021/07/03 07:11:15;;;;;;;9.88;4.87;;;;;;;23.91;65.12;99242.27;1750199;80;22187;-77
2021/07/03 07:13:42;;;;;;;11.38;5.03;;;;;;;23.94;63.92;99240.47;1749870;82;20988;-77
2021/07/03 07:16:09;;;;;;;12.30;5.00;;;;;;;23.89;62.92;99240.34;1733419;82;21080;-76
2021/07/03 07:18:35;;;;;;;10.98;5.20;;;;;;;23.82;62.96;99242.34;1720119;83;21064;-76
2021/07/03 07:21:01;;;;;;;8.45;5.05;;;;;;;23.78;62.50;99241.70;1720158;83;21044;-77
2021/07/03 07:23:28;;;;;;;12.60;5.22;;;;;;;23.79;62.92;99239.30;1720114;83;22208;-77
2021/07/03 07:25:54;;;;;;;7.87;4.75;;;;;;;23.89;63.94;99238.17;1726233;82;20921;-77
2021/07/03 07:28:20;;;;;;;13.38;5.80;;;;;;;24.02;64.04;99237.92;1749936;82;21532;-77
2021/07/03 07:30:47;;;;;;;9.88;5.60;;;;;;;24.14;63.63;99237.39;1749835;82;21130;-77
2021/07/03 07:33:14;;;;;;;8.73;5.42;;;;;;;24.25;63.28;99241.12;1749906;82;21012;-77
2021/07/03 07:35:40;;;;;;;10.80;5.53;;;;;;;24.30;62.20;99234.46;1746817;81;22200;-77
2021/07/03 07:38:06;;;;;;;16.57;5.67;;;;;;;24.29;61.70;99236.88;1735883;81;20934;-77
2021/07/03 07:40:33;;;;;;;9.98;6.20;;;;;;;24.28;61.90;99233.36;1735972;82;20993;-77
2021/07/03 07:42:59;;;;;;;13.20;6.30;;;;;;;24.35;62.01;99232.44;1734789;81;21030;-77
2021/07/03 07:45:26;;;;;;;12.00;6.37;;;;;;;24.43;62.61;99241.52;1735923;82;20957;-77
2021/07/03 07:47:52;;;;;;;13.93;6.37;;;;;;;24.46;62.22;99247.25;1736153;81;22169;-77
2021/07/03 07:50:19;;;;;;;13.10;5.65;;;;;;;24.48;61.48;99249.17;1736182;81;21044;-77
2021/07/03 07:52:45;;;;;;;10.38;6.10;;;;;;;24.50;61.50;99253.80;1736124;81;20938;-77
2021/07/03 07:55:12;;;;;;;14.43;6.37;;;;;;;24.57;60.83;99252.31;1736059;81;21029;-78
2021/07/03 07:57:39;;;;;;;15.72;6.37;;;;;;;24.52;60.35;99250.34;1736135;81;21334;-76
2021/07/03 08:00:08;;;;;;;12.00;5.42;;;;;;;24.52;60.56;99255.75;1734997;82;20962;-76
2021/07/03 08:02:37;;;;;;;11.90;5.85;;;;;;;24.61;60.86;99257.55;1735960;82;20934;-76
2021/07/03 08:05:04;;;;;;;16.10;6.00;;;;;;;24.74;60.90;99261.83;1736379;82;21029;-76
2021/07/03 08:07:31;;;;;;;7.72;5.08;;;;;;;24.88;60.75;99261.81;1736084;82;20989;-76
2021/07/03 08:09:59;;;;;;;11.43;5.80;;;;;;;24.97;59.66;99263.59;1736090;82;21476;-77
2021/07/03 08:12:26;;;;;;;9.70;5.78;;;;;;;25.00;58.85;99259.08;1736006;81;21718;-77
2021/07/03 08:14:52;;;;;;;9.38;4.70;;;;;;;25.08;59.07;99266.26;1735218;81;21037;-77
2021/07/03 08:17:19;;;;;;;7.35;4.75;;;;;;;25.20;58.67;99265.40;1718122;82;20937;-77
2021/07/03 08:19:45;;;;;;;10.13;5.83;;;;;;;25.31;58.87;99267.20;1736094;82;20962;-77
2021/07/03 08:22:12;;;;;;;8.73;5.62;;;;;;;25.39;59.05;99280.33;1736072;82;20973;-77
2021/07/03 08:24:38;;;;;;;12.37;6.10;;;;;;;25.46;58.59;99278.79;1736110;81;22182;-77
2021/07/03 08:27:06;;;;;;;11.73;5.75;;;;;;;25.52;58.41;99271.06;1736009;82;20985;-77
2021/07/03 08:29:32;;;;;;;13.28;6.60;;;;;;;25.58;59.14;99274.96;1736104;82;21009;-77
2021/07/03 08:31:58;;;;;;;11.63;6.33;;;;;;;25.65;59.02;99273.42;1736073;82;20958;-75
2021/07/03 08:34:25;;;;;;;10.10;6.78;;;;;;;25.66;58.88;99275.88;1734970;82;20953;-76
2021/07/03 08:36:52;;;;;;;10.75;5.55;;;;;;;25.69;59.03;99268.64;1743941;81;22134;-77
2021/07/03 08:39:19;;;;;;;12.88;5.95;;;;;;;25.75;59.20;99264.14;1749971;80;21012;-75
2021/07/03 08:41:46;;;;;;;11.73;6.25;;;;;;;25.81;58.89;99265.86;1747211;82;20937;-76
2021/07/03 08:44:14;;;;;;;10.58;5.78;;;;;;;25.85;58.04;99267.53;1720238;82;20996;-76
2021/07/03 08:46:44;;;;;;;11.20;5.90;;;;;;;25.93;58.29;99265.76;1719560;82;21032;-76
2021/07/03 08:49:14;;;;;;;11.88;5.78;;;;;;;25.92;57.80;99260.88;1720195;82;22187;-77
2021/07/03 08:51:43;;;;;;;12.37;7.08;;;;;;;25.93;58.24;99256.29;1735938;82;21020;-76
2021/07/03 08:54:10;;;;;;;8.83;6.22;;;;;;;25.96;58.17;99257.98;1749598;82;21456;-78
2021/07/03 08:56:36;;;;;;;9.38;5.95;;;;;;;25.99;58.47;99254.48;1749986;82;21036;-76
2021/07/03 08:59:19;;;;;;;7.92;5.08;;;;;;;26.10;59.24;99253.02;1750250;82;21004;-75
2021/07/03 09:01:52;;;;;;;9.28;5.10;;;;;;;26.29;58.37;99258.12;1750270;82;22504;-76
2021/07/03 09:04:21;;;;;;;10.03;5.60;;;;;;;26.41;57.66;99257.49;1750125;82;21419;-76
2021/07/03 09:06:48;;;;;;;10.28;5.83;;;;;;;26.52;57.50;99257.36;1747951;80;20865;-76
2021/07/03 09:09:25;;;;;;;10.48;5.17;;;;;;;26.63;57.27;99253.41;1748975;82;21419;-76
2021/07/03 09:11:55;;;;;;;8.05;5.20;;;;;;;26.76;57.11;99249.78;1750370;82;21004;-76
2021/07/03 09:14:28;;;;;;;8.33;5.30;;;;;;;26.84;56.21;99251.23;1750078;82;21840;-76
2021/07/03 09:16:58;;;;;;;9.60;5.25;;;;;;;26.91;56.50;99246.40;1727144;82;20996;-75
2021/07/03 09:19:30;;;;;;;13.08;5.03;;;;;;;27.02;56.24;99248.66;1733286;82;21044;-76
2021/07/03 09:21:57;;;;;;;6.85;5.03;;;;;;;27.04;55.49;99253.34;1750417;82;20956;-75
2021/07/03 09:24:32;;;;;;;6.95;4.70;;;;;;;27.06;55.66;99249.30;1749385;82;21028;-77
2021/07/03 09:27:02;;;;;;;7.90;5.10;;;;;;;27.18;55.92;99238.28;1720440;83;21793;-77
2021/07/03 09:29:29;;;;;;;10.85;5.30;;;;;;;27.34;55.40;99241.95;1719945;83;20904;-76
2021/07/03 09:31:55;;;;;;;13.60;5.87;;;;;;;27.42;55.60;99233.34;1693950;83;21056;-76
2021/07/03 09:34:22;;;;;;;10.98;5.87;;;;;;;27.53;55.89;99234.23;1693528;83;21028;-76
2021/07/03 09:36:49;;;;;;;14.80;6.22;;;;;;;27.66;54.56;99232.45;1714637;83;20945;-75
2021/07/03 09:39:26;;;;;;;8.58;5.10;;;;;;;27.63;53.89;99234.30;1706668;84;22198;-75
2021/07/03 09:41:50;;;;;;;8.95;5.70;;;;;;;27.62;54.71;99232.14;1712244;82;21064;-76
2021/07/03 09:44:18;;;;;;;11.93;6.37;;;;;;;27.69;54.35;99233.81;1735986;82;20997;-75
2021/07/03 09:46:50;;;;;;;9.00;6.08;;;;;;;27.67;53.66;99234.08;1736068;82;20974;-75
2021/07/03 09:49:24;;;;;;;10.75;6.60;;;;;;;27.62;54.35;99230.78;1736200;82;20961;-75
2021/07/03 09:51:56;;;;;;;9.00;5.70;;;;;;;27.72;54.56;99225.99;1736125;82;21817;-75
2021/07/03 09:54:24;;;;;;;9.50;5.58;;;;;;;27.79;55.21;99225.20;1736220;82;21049;-76
2021/07/03 09:56:58;;;;;;;10.70;5.95;;;;;;;28.00;55.50;99225.34;1735932;81;21013;-75
2021/07/03 09:59:33;;;;;;;10.35;5.70;;;;;;;28.13;54.42;99228.92;1735300;82;20950;-75
2021/07/03 10:02:01;;;;;;;8.33;5.70;;;;;;;28.10;54.70;99232.98;1736125;82;21547;-76
2021/07/03 10:04:28;;;;;;;10.95;5.60;;;;;;;28.09;54.64;99230.00;1736282;82;22785;-75
2021/07/03 10:07:04;;;;;;;10.95;6.03;;;;;;;28.10;54.60;99229.45;1735845;82;20950;-75
2021/07/03 10:09:37;;;;;;;11.95;6.00;;;;;;;28.13;54.42;99224.84;1736243;82;21175;-76
2021/07/03 10:12:09;;;;;;;8.38;5.62;;;;;;;28.23;54.80;99221.63;1736055;82;21142;-75
2021/07/03 10:14:46;;;;;;;9.63;5.35;;;;;;;28.31;54.27;99214.91;1735757;82;20939;-75
2021/07/03 10:17:24;;;;;;;11.20;5.42;;;;;;;28.30;53.02;99226.05;1707869;82;22642;-75
2021/07/03 10:19:51;;;;;;;9.43;5.60;;;;;;;28.17;51.79;99220.51;1706543;84;21025;-76
2021/07/03 10:22:27;;;;;;;8.05;5.47;;;;;;;28.01;51.35;99221.54;1706707;84;20941;-75
2021/07/03 10:24:57;;;;;;;7.35;5.12;;;;;;;27.95;52.99;99222.04;1706816;84;21449;-75
2021/07/03 10:27:28;;;;;;;7.80;6.08;;;;;;;27.99;52.65;99223.16;1721617;82;20990;-76
2021/07/03 10:29:58;;;;;;;9.98;5.87;;;;;;;28.07;52.74;99219.11;1728596;81;21796;-77
2021/07/03 10:32:34;;;;;;;12.60;6.22;;;;;;;28.22;53.28;99211.05;1717405;82;20950;-75
2021/07/03 10:35:22;;;;;;;9.90;6.10;;;;;;;28.43;51.57;99212.77;1718311;82;21040;-77
2021/07/03 10:37:49;;;;;;;9.90;5.90;;;;;;;28.64;53.13;99212.83;1722225;82;21017;-74
2021/07/03 10:40:27;;;;;;;11.90;6.40;;;;;;;28.85;54.30;99216.39;1739045;82;20980;-74
2021/07/03 10:42:55;;;;;;;16.35;5.92;;;;;;;28.91;52.87;99215.36;1748883;82;22199;-74
2021/07/03 10:45:23;;;;;;;7.40;5.35;;;;;;;28.74;53.01;99214.20;1703309;82;21021;-73
2021/07/03 10:47:54;;;;;;;14.30;5.87;;;;;;;28.69;53.47;99210.95;1750269;82;20990;-73
2021/07/03 10:50:29;;;;;;;7.58;5.92;;;;;;;28.70;53.61;99213.94;1738027;82;21487;-73
2021/07/03 10:52:57;;;;;;;8.85;5.80;;;;;;;28.77;53.96;99209.61;1728170;81;20941;-74
2021/07/03 10:55:35;;;;;;;10.48;5.85;;;;;;;28.83;52.78;99212.59;1743188;82;22275;-72
2021/07/03 10:58:16;;;;;;;10.38;6.30;;;;;;;28.58;52.21;99212.56;1733625;82;20905;-76
2021/07/03 11:00:43;;;;;;;33.42;7.10;;;;;;;28.15;53.54;99213.17;1749292;80;20975;-75
2021/07/03 11:03:16;;;;;;;15.95;6.22;;;;;;;27.76;54.56;99211.34;1730153;82;21075;-76
2021/07/03 11:05:43;;;;;;;8.13;6.00;;;;;;;27.56;55.91;99213.36;1737315;82;21012;-77
2021/07/03 11:08:13;;;;;;;11.97;5.95;;;;;;;27.64;56.47;99203.39;1721595;82;21708;-76
2021/07/03 11:10:41;;;;;;;10.78;5.90;;;;;;;27.93;57.17;99202.50;1724221;82;21039;-77
2021/07/03 11:13:18;;;;;;;9.80;5.90;;;;;;;28.39;56.10;99214.41;1749121;82;20941;-77
2021/07/03 11:15:44;;;;;;;8.80;5.35;;;;;;;28.72;54.77;99206.33;1745387;82;21099;-77
2021/07/03 11:18:11;;;;;;;9.65;5.78;;;;;;;29.07;54.23;99202.06;1749743;80;21447;-78
2021/07/03 11:20:40;;;;;;;10.05;5.20;;;;;;;29.65;51.01;99203.95;1749220;82;22829;-78
2021/07/03 11:23:07;;;;;;;5.62;4.70;;;;;;;29.77;51.01;99198.20;1749956;82;20922;-77
2021/07/03 11:25:40;;;;;;;7.78;5.45;;;;;;;29.77;51.01;99198.20;1723139;82;20993;-77
2021/07/03 11:28:14;;;;;;;;;;;;;;;29.87;51.36;99207.70;1723441;83;20993;-77
2021/07/03 11:30:44;;;;;;;12.15;6.05;;;;;;;30.07;49.79;99172.27;1721108;83;20172;-77